sensor_id;sensor_type;location;lat;lon;timestamp;P1;durP1;ratioP1;P2;durP2;ratioP2
9888;SDS011;4983;42.112;24.738;2023-09-12T00:00:44;6.13;;;2.00;;
9888;SDS011;4983;42.112;24.738;2023-09-12T00:03:11;4.03;;;2.13;;
9888;SDS011;4983;42.112;24.738;2023-09-12T00:05:38;4.23;;;2.20;;
9888;SDS011;4983;42.112;24.738;2023-09-12T00:08:05;4.13;;;2.30;;
9888;SDS011;4983;42.112;24.738;2023-09-12T00:10:34;33.53;;;6.43;;
9888;SDS011;4983;42.112;24.738;2023-09-12T00:13:01;6.63;;;3.07;;
9888;SDS011;4983;42.112;24.738;2023-09-12T00:15:28;9.17;;;2.70;;
9888;SDS011;4983;42.112;24.738;2023-09-12T00:17:55;6.37;;;2.20;;
9888;SDS011;4983;42.112;24.738;2023-09-12T00:20:22;5.20;;;2.40;;
9888;SDS011;4983;42.112;24.738;2023-09-12T00:22:49;5.40;;;2.30;;
9888;SDS011;4983;42.112;24.738;2023-09-12T00:25:16;5.63;;;2.70;;
9888;SDS011;4983;42.112;24.738;2023-09-12T00:27:44;6.67;;;2.93;;
9888;SDS011;4983;42.112;24.738;2023-09-12T00:30:11;4.87;;;2.77;;
9888;SDS011;4983;42.112;24.738;2023-09-12T00:32:40;3.40;;;2.63;;
9888;SDS011;4983;42.112;24.738;2023-09-12T00:35:07;13.60;;;2.83;;
9888;SDS011;4983;42.112;24.738;2023-09-12T00:37:34;7.90;;;2.97;;
9888;SDS011;4983;42.112;24.738;2023-09-12T00:40:01;8.07;;;2.67;;
9888;SDS011;4983;42.112;24.738;2023-09-12T00:42:28;4.00;;;2.37;;
9888;SDS011;4983;42.112;24.738;2023-09-12T00:44:56;4.00;;;2.37;;
9888;SDS011;4983;42.112;24.738;2023-09-12T00:47:23;5.20;;;2.30;;
9888;SDS011;4983;42.112;24.738;2023-09-12T00:49:50;3.17;;;2.23;;
9888;SDS011;4983;42.112;24.738;2023-09-12T00:52:17;20.50;;;4.40;;
9888;SDS011;4983;42.112;24.738;2023-09-12T00:54:48;15.53;;;3.27;;
9888;SDS011;4983;42.112;24.738;2023-09-12T00:57:15;5.97;;;2.30;;
9888;SDS011;4983;42.112;24.738;2023-09-12T00:59:42;3.33;;;2.20;;
9888;SDS011;4983;42.112;24.738;2023-09-12T01:02:11;3.87;;;2.07;;
9888;SDS011;4983;42.112;24.738;2023-09-12T01:04:38;3.63;;;2.30;;
9888;SDS011;4983;42.112;24.738;2023-09-12T01:07:06;8.37;;;2.87;;
9888;SDS011;4983;42.112;24.738;2023-09-12T01:09:33;4.67;;;2.30;;
9888;SDS011;4983;42.112;24.738;2023-09-12T01:12:00;6.60;;;2.50;;
9888;SDS011;4983;42.112;24.738;2023-09-12T01:14:28;3.23;;;2.20;;
9888;SDS011;4983;42.112;24.738;2023-09-12T01:16:55;5.53;;;2.57;;
9888;SDS011;4983;42.112;24.738;2023-09-12T01:19:23;5.43;;;2.50;;
9888;SDS011;4983;42.112;24.738;2023-09-12T01:22:13;4.73;;;2.63;;
9888;SDS011;4983;42.112;24.738;2023-09-12T01:25:00;4.07;;;2.60;;
9888;SDS011;4983;42.112;24.738;2023-09-12T01:27:50;4.37;;;2.60;;
9888;SDS011;4983;42.112;24.738;2023-09-12T01:30:20;3.83;;;2.53;;
9888;SDS011;4983;42.112;24.738;2023-09-12T01:32:48;4.30;;;2.97;;
9888;SDS011;4983;42.112;24.738;2023-09-12T01:35:16;5.67;;;2.60;;
9888;SDS011;4983;42.112;24.738;2023-09-12T01:37:43;3.47;;;2.50;;
9888;SDS011;4983;42.112;24.738;2023-09-12T01:40:10;4.40;;;2.80;;
9888;SDS011;4983;42.112;24.738;2023-09-12T01:42:40;8.13;;;2.50;;
9888;SDS011;4983;42.112;24.738;2023-09-12T01:45:12;5.47;;;3.10;;
9888;SDS011;4983;42.112;24.738;2023-09-12T01:47:40;3.87;;;2.70;;
9888;SDS011;4983;42.112;24.738;2023-09-12T01:50:09;4.83;;;2.97;;
9888;SDS011;4983;42.112;24.738;2023-09-12T01:52:38;4.93;;;2.57;;
9888;SDS011;4983;42.112;24.738;2023-09-12T01:55:07;3.50;;;2.80;;
9888;SDS011;4983;42.112;24.738;2023-09-12T01:57:35;4.43;;;2.67;;
9888;SDS011;4983;42.112;24.738;2023-09-12T02:00:03;3.43;;;2.47;;
9888;SDS011;4983;42.112;24.738;2023-09-12T02:02:32;3.07;;;2.40;;
9888;SDS011;4983;42.112;24.738;2023-09-12T02:05:03;4.20;;;2.60;;
9888;SDS011;4983;42.112;24.738;2023-09-12T02:07:36;3.20;;;2.20;;
9888;SDS011;4983;42.112;24.738;2023-09-12T02:10:05;2.60;;;2.07;;
9888;SDS011;4983;42.112;24.738;2023-09-12T02:12:32;2.57;;;2.10;;
9888;SDS011;4983;42.112;24.738;2023-09-12T02:14:59;6.00;;;2.90;;
9888;SDS011;4983;42.112;24.738;2023-09-12T02:17:26;4.43;;;2.57;;
9888;SDS011;4983;42.112;24.738;2023-09-12T02:19:55;5.93;;;2.47;;
9888;SDS011;4983;42.112;24.738;2023-09-12T02:22:23;4.27;;;2.57;;
9888;SDS011;4983;42.112;24.738;2023-09-12T02:24:50;5.07;;;2.40;;
9888;SDS011;4983;42.112;24.738;2023-09-12T02:27:17;4.30;;;3.00;;
9888;SDS011;4983;42.112;24.738;2023-09-12T02:29:44;3.37;;;2.30;;
9888;SDS011;4983;42.112;24.738;2023-09-12T02:32:10;4.30;;;2.50;;
9888;SDS011;4983;42.112;24.738;2023-09-12T02:34:37;3.33;;;2.57;;
9888;SDS011;4983;42.112;24.738;2023-09-12T02:37:06;3.73;;;2.63;;
9888;SDS011;4983;42.112;24.738;2023-09-12T02:39:33;3.07;;;2.67;;
9888;SDS011;4983;42.112;24.738;2023-09-12T02:41:59;4.07;;;2.87;;
9888;SDS011;4983;42.112;24.738;2023-09-12T02:44:27;2.60;;;2.33;;
9888;SDS011;4983;42.112;24.738;2023-09-12T02:46:54;5.23;;;3.00;;
9888;SDS011;4983;42.112;24.738;2023-09-12T02:49:22;5.20;;;2.80;;
9888;SDS011;4983;42.112;24.738;2023-09-12T02:51:49;9.63;;;3.13;;
9888;SDS011;4983;42.112;24.738;2023-09-12T02:54:17;4.30;;;2.70;;
9888;SDS011;4983;42.112;24.738;2023-09-12T02:56:44;4.80;;;2.90;;
9888;SDS011;4983;42.112;24.738;2023-09-12T02:59:11;5.63;;;2.90;;
9888;SDS011;4983;42.112;24.738;2023-09-12T03:01:38;4.57;;;2.83;;
9888;SDS011;4983;42.112;24.738;2023-09-12T03:04:06;3.87;;;2.90;;
9888;SDS011;4983;42.112;24.738;2023-09-12T03:06:33;8.07;;;2.83;;
9888;SDS011;4983;42.112;24.738;2023-09-12T03:09:01;3.80;;;2.90;;
9888;SDS011;4983;42.112;24.738;2023-09-12T03:11:30;5.03;;;2.80;;
9888;SDS011;4983;42.112;24.738;2023-09-12T03:13:57;3.53;;;2.67;;
9888;SDS011;4983;42.112;24.738;2023-09-12T03:16:23;57.57;;;31.57;;
9888;SDS011;4983;42.112;24.738;2023-09-12T03:18:50;59.07;;;34.77;;
9888;SDS011;4983;42.112;24.738;2023-09-12T03:21:17;80.57;;;48.37;;
9888;SDS011;4983;42.112;24.738;2023-09-12T03:23:44;34.93;;;22.20;;
9888;SDS011;4983;42.112;24.738;2023-09-12T03:26:11;31.77;;;20.67;;
9888;SDS011;4983;42.112;24.738;2023-09-12T03:28:39;30.67;;;18.73;;
9888;SDS011;4983;42.112;24.738;2023-09-12T03:31:08;16.37;;;11.53;;
9888;SDS011;4983;42.112;24.738;2023-09-12T03:33:38;10.80;;;3.80;;
9888;SDS011;4983;42.112;24.738;2023-09-12T03:36:06;4.23;;;2.87;;
9888;SDS011;4983;42.112;24.738;2023-09-12T03:38:34;4.80;;;3.00;;
9888;SDS011;4983;42.112;24.738;2023-09-12T03:41:01;5.97;;;3.47;;
9888;SDS011;4983;42.112;24.738;2023-09-12T03:43:28;4.57;;;3.30;;
9888;SDS011;4983;42.112;24.738;2023-09-12T03:45:57;6.30;;;3.07;;
9888;SDS011;4983;42.112;24.738;2023-09-12T03:48:24;7.73;;;3.20;;
9888;SDS011;4983;42.112;24.738;2023-09-12T03:50:51;5.17;;;2.83;;
9888;SDS011;4983;42.112;24.738;2023-09-12T03:53:18;4.60;;;2.80;;
9888;SDS011;4983;42.112;24.738;2023-09-12T03:55:45;3.37;;;2.97;;
9888;SDS011;4983;42.112;24.738;2023-09-12T03:58:12;5.43;;;3.23;;
9888;SDS011;4983;42.112;24.738;2023-09-12T04:00:39;5.50;;;2.77;;
9888;SDS011;4983;42.112;24.738;2023-09-12T04:03:07;3.30;;;2.70;;
9888;SDS011;4983;42.112;24.738;2023-09-12T04:05:34;4.87;;;3.33;;
9888;SDS011;4983;42.112;24.738;2023-09-12T04:08:02;8.20;;;3.70;;
9888;SDS011;4983;42.112;24.738;2023-09-12T04:10:30;6.47;;;3.57;;
9888;SDS011;4983;42.112;24.738;2023-09-12T04:12:58;6.90;;;3.27;;
9888;SDS011;4983;42.112;24.738;2023-09-12T04:15:25;5.83;;;3.10;;
9888;SDS011;4983;42.112;24.738;2023-09-12T04:17:53;5.57;;;3.20;;
9888;SDS011;4983;42.112;24.738;2023-09-12T04:20:21;9.37;;;3.43;;
9888;SDS011;4983;42.112;24.738;2023-09-12T04:22:48;5.30;;;3.80;;
9888;SDS011;4983;42.112;24.738;2023-09-12T04:25:16;8.40;;;3.53;;
9888;SDS011;4983;42.112;24.738;2023-09-12T04:27:45;11.93;;;3.67;;
9888;SDS011;4983;42.112;24.738;2023-09-12T04:30:12;8.63;;;3.50;;
9888;SDS011;4983;42.112;24.738;2023-09-12T04:32:39;3.53;;;2.97;;
9888;SDS011;4983;42.112;24.738;2023-09-12T04:35:06;7.33;;;3.77;;
9888;SDS011;4983;42.112;24.738;2023-09-12T04:37:35;7.03;;;3.30;;
9888;SDS011;4983;42.112;24.738;2023-09-12T04:40:02;8.27;;;3.70;;
9888;SDS011;4983;42.112;24.738;2023-09-12T04:42:31;6.27;;;3.53;;
9888;SDS011;4983;42.112;24.738;2023-09-12T04:44:58;15.80;;;4.23;;
9888;SDS011;4983;42.112;24.738;2023-09-12T04:47:25;17.93;;;4.30;;
9888;SDS011;4983;42.112;24.738;2023-09-12T04:49:53;5.13;;;3.60;;
9888;SDS011;4983;42.112;24.738;2023-09-12T04:52:20;22.00;;;5.20;;
9888;SDS011;4983;42.112;24.738;2023-09-12T04:54:48;35.13;;;6.90;;
9888;SDS011;4983;42.112;24.738;2023-09-12T04:57:15;14.97;;;4.23;;
9888;SDS011;4983;42.112;24.738;2023-09-12T04:59:43;8.43;;;3.87;;
9888;SDS011;4983;42.112;24.738;2023-09-12T05:02:10;15.47;;;5.03;;
9888;SDS011;4983;42.112;24.738;2023-09-12T05:04:37;13.30;;;4.60;;
9888;SDS011;4983;42.112;24.738;2023-09-12T05:07:04;10.47;;;3.77;;
9888;SDS011;4983;42.112;24.738;2023-09-12T05:09:30;17.97;;;4.10;;
9888;SDS011;4983;42.112;24.738;2023-09-12T05:11:59;14.30;;;4.13;;
9888;SDS011;4983;42.112;24.738;2023-09-12T05:14:26;16.30;;;4.27;;
9888;SDS011;4983;42.112;24.738;2023-09-12T05:16:53;17.23;;;4.13;;
9888;SDS011;4983;42.112;24.738;2023-09-12T05:19:20;6.47;;;3.60;;
9888;SDS011;4983;42.112;24.738;2023-09-12T05:21:48;8.30;;;3.60;;
9888;SDS011;4983;42.112;24.738;2023-09-12T05:24:15;12.20;;;4.43;;
9888;SDS011;4983;42.112;24.738;2023-09-12T05:26:42;11.67;;;4.10;;
9888;SDS011;4983;42.112;24.738;2023-09-12T05:29:10;8.47;;;3.67;;
9888;SDS011;4983;42.112;24.738;2023-09-12T05:31:37;8.83;;;3.60;;
9888;SDS011;4983;42.112;24.738;2023-09-12T05:34:04;8.83;;;3.27;;
9888;SDS011;4983;42.112;24.738;2023-09-12T05:36:31;21.17;;;5.70;;
9888;SDS011;4983;42.112;24.738;2023-09-12T05:38:59;22.60;;;4.53;;
9888;SDS011;4983;42.112;24.738;2023-09-12T05:41:26;12.20;;;4.10;;
9888;SDS011;4983;42.112;24.738;2023-09-12T05:43:53;25.50;;;5.40;;
9888;SDS011;4983;42.112;24.738;2023-09-12T05:46:21;9.87;;;4.03;;
9888;SDS011;4983;42.112;24.738;2023-09-12T05:48:48;12.00;;;3.83;;
9888;SDS011;4983;42.112;24.738;2023-09-12T05:51:15;8.20;;;3.90;;
9888;SDS011;4983;42.112;24.738;2023-09-12T05:53:42;8.10;;;3.60;;
9888;SDS011;4983;42.112;24.738;2023-09-12T05:56:09;5.90;;;3.10;;
9888;SDS011;4983;42.112;24.738;2023-09-12T05:58:36;13.90;;;4.03;;
9888;SDS011;4983;42.112;24.738;2023-09-12T06:01:06;15.17;;;4.07;;
9888;SDS011;4983;42.112;24.738;2023-09-12T06:03:35;19.40;;;3.63;;
9888;SDS011;4983;42.112;24.738;2023-09-12T06:06:02;5.93;;;3.00;;
9888;SDS011;4983;42.112;24.738;2023-09-12T06:08:29;6.40;;;2.73;;
9888;SDS011;4983;42.112;24.738;2023-09-12T06:10:56;6.03;;;2.97;;
9888;SDS011;4983;42.112;24.738;2023-09-12T06:13:23;3.90;;;3.00;;
9888;SDS011;4983;42.112;24.738;2023-09-12T06:15:50;33.43;;;5.43;;
9888;SDS011;4983;42.112;24.738;2023-09-12T06:18:17;9.87;;;3.40;;
9888;SDS011;4983;42.112;24.738;2023-09-12T06:20:46;10.13;;;3.27;;
9888;SDS011;4983;42.112;24.738;2023-09-12T06:23:13;7.37;;;2.93;;
9888;SDS011;4983;42.112;24.738;2023-09-12T06:25:40;4.93;;;2.90;;
9888;SDS011;4983;42.112;24.738;2023-09-12T06:28:08;5.17;;;2.80;;
9888;SDS011;4983;42.112;24.738;2023-09-12T06:30:36;5.83;;;2.90;;
9888;SDS011;4983;42.112;24.738;2023-09-12T06:33:03;6.60;;;3.07;;
9888;SDS011;4983;42.112;24.738;2023-09-12T06:35:31;8.73;;;3.33;;
9888;SDS011;4983;42.112;24.738;2023-09-12T06:38:00;7.53;;;2.90;;
9888;SDS011;4983;42.112;24.738;2023-09-12T06:40:29;8.23;;;3.00;;
9888;SDS011;4983;42.112;24.738;2023-09-12T06:42:56;6.33;;;3.10;;
9888;SDS011;4983;42.112;24.738;2023-09-12T06:45:23;8.80;;;3.47;;
9888;SDS011;4983;42.112;24.738;2023-09-12T06:47:51;8.57;;;4.07;;
9888;SDS011;4983;42.112;24.738;2023-09-12T06:50:18;6.77;;;3.50;;
9888;SDS011;4983;42.112;24.738;2023-09-12T06:52:45;9.60;;;3.30;;
9888;SDS011;4983;42.112;24.738;2023-09-12T06:55:13;6.77;;;3.20;;
9888;SDS011;4983;42.112;24.738;2023-09-12T06:57:40;4.17;;;2.53;;
9888;SDS011;4983;42.112;24.738;2023-09-12T07:00:08;5.63;;;2.50;;
9888;SDS011;4983;42.112;24.738;2023-09-12T07:02:36;4.67;;;2.30;;
9888;SDS011;4983;42.112;24.738;2023-09-12T07:05:03;4.83;;;2.00;;
9888;SDS011;4983;42.112;24.738;2023-09-12T07:07:32;5.13;;;1.80;;
9888;SDS011;4983;42.112;24.738;2023-09-12T07:10:01;5.97;;;1.80;;
9888;SDS011;4983;42.112;24.738;2023-09-12T07:12:30;5.07;;;1.80;;
9888;SDS011;4983;42.112;24.738;2023-09-12T07:14:58;10.07;;;2.50;;
9888;SDS011;4983;42.112;24.738;2023-09-12T07:17:27;3.00;;;1.77;;
9888;SDS011;4983;42.112;24.738;2023-09-12T07:19:54;4.20;;;1.97;;
9888;SDS011;4983;42.112;24.738;2023-09-12T07:22:22;4.20;;;1.83;;
9888;SDS011;4983;42.112;24.738;2023-09-12T07:24:49;11.80;;;2.47;;
9888;SDS011;4983;42.112;24.738;2023-09-12T07:27:16;4.57;;;2.10;;
9888;SDS011;4983;42.112;24.738;2023-09-12T07:29:44;2.20;;;1.70;;
9888;SDS011;4983;42.112;24.738;2023-09-12T07:32:12;3.50;;;1.70;;
9888;SDS011;4983;42.112;24.738;2023-09-12T07:34:39;11.33;;;2.10;;
9888;SDS011;4983;42.112;24.738;2023-09-12T07:37:09;6.47;;;1.83;;
9888;SDS011;4983;42.112;24.738;2023-09-12T07:39:36;2.80;;;1.97;;
9888;SDS011;4983;42.112;24.738;2023-09-12T07:42:03;3.83;;;1.87;;
9888;SDS011;4983;42.112;24.738;2023-09-12T07:44:30;8.00;;;2.20;;
9888;SDS011;4983;42.112;24.738;2023-09-12T07:46:59;3.20;;;1.60;;
9888;SDS011;4983;42.112;24.738;2023-09-12T07:49:26;13.87;;;3.10;;
9888;SDS011;4983;42.112;24.738;2023-09-12T07:51:53;5.07;;;1.80;;
9888;SDS011;4983;42.112;24.738;2023-09-12T07:54:22;14.17;;;2.50;;
9888;SDS011;4983;42.112;24.738;2023-09-12T07:56:50;7.30;;;1.97;;
9888;SDS011;4983;42.112;24.738;2023-09-12T07:59:17;3.97;;;1.90;;
9888;SDS011;4983;42.112;24.738;2023-09-12T08:01:45;3.87;;;1.80;;
9888;SDS011;4983;42.112;24.738;2023-09-12T08:04:14;9.30;;;2.13;;
9888;SDS011;4983;42.112;24.738;2023-09-12T08:06:41;3.67;;;1.67;;
9888;SDS011;4983;42.112;24.738;2023-09-12T08:09:09;3.93;;;1.63;;
9888;SDS011;4983;42.112;24.738;2023-09-12T08:11:36;9.00;;;1.80;;
9888;SDS011;4983;42.112;24.738;2023-09-12T08:14:03;3.40;;;1.77;;
9888;SDS011;4983;42.112;24.738;2023-09-12T08:16:30;1.60;;;1.50;;
9888;SDS011;4983;42.112;24.738;2023-09-12T08:18:57;4.37;;;1.67;;
9888;SDS011;4983;42.112;24.738;2023-09-12T08:21:26;2.00;;;1.77;;
9888;SDS011;4983;42.112;24.738;2023-09-12T08:23:53;5.07;;;1.80;;
9888;SDS011;4983;42.112;24.738;2023-09-12T08:26:20;3.03;;;1.90;;
9888;SDS011;4983;42.112;24.738;2023-09-12T08:28:47;4.73;;;2.00;;
9888;SDS011;4983;42.112;24.738;2023-09-12T08:31:14;8.20;;;2.00;;
9888;SDS011;4983;42.112;24.738;2023-09-12T08:33:42;4.77;;;1.70;;
9888;SDS011;4983;42.112;24.738;2023-09-12T08:36:09;2.40;;;1.70;;
9888;SDS011;4983;42.112;24.738;2023-09-12T08:38:38;4.47;;;1.67;;
9888;SDS011;4983;42.112;24.738;2023-09-12T08:41:05;3.53;;;1.60;;
9888;SDS011;4983;42.112;24.738;2023-09-12T08:43:32;2.73;;;1.60;;
9888;SDS011;4983;42.112;24.738;2023-09-12T08:46:01;4.13;;;1.63;;
9888;SDS011;4983;42.112;24.738;2023-09-12T08:48:28;6.53;;;1.80;;
9888;SDS011;4983;42.112;24.738;2023-09-12T08:50:56;18.33;;;3.73;;
9888;SDS011;4983;42.112;24.738;2023-09-12T08:53:24;3.17;;;1.77;;
9888;SDS011;4983;42.112;24.738;2023-09-12T08:55:53;3.30;;;1.90;;
9888;SDS011;4983;42.112;24.738;2023-09-12T08:58:20;3.50;;;1.73;;
9888;SDS011;4983;42.112;24.738;2023-09-12T09:00:49;3.13;;;1.70;;
9888;SDS011;4983;42.112;24.738;2023-09-12T09:03:16;2.63;;;1.70;;
9888;SDS011;4983;42.112;24.738;2023-09-12T09:05:45;3.63;;;1.70;;
9888;SDS011;4983;42.112;24.738;2023-09-12T09:08:14;2.87;;;1.70;;
9888;SDS011;4983;42.112;24.738;2023-09-12T09:10:55;2.93;;;1.80;;
9888;SDS011;4983;42.112;24.738;2023-09-12T09:13:23;4.87;;;1.50;;
9888;SDS011;4983;42.112;24.738;2023-09-12T09:15:55;5.23;;;1.80;;
9888;SDS011;4983;42.112;24.738;2023-09-12T09:18:49;2.83;;;1.60;;
9888;SDS011;4983;42.112;24.738;2023-09-12T09:21:17;2.47;;;1.60;;
9888;SDS011;4983;42.112;24.738;2023-09-12T09:23:45;5.83;;;1.70;;
9888;SDS011;4983;42.112;24.738;2023-09-12T09:26:14;22.33;;;3.90;;
9888;SDS011;4983;42.112;24.738;2023-09-12T09:28:41;3.00;;;1.77;;
9888;SDS011;4983;42.112;24.738;2023-09-12T09:31:10;3.87;;;1.60;;
9888;SDS011;4983;42.112;24.738;2023-09-12T09:33:37;3.23;;;1.77;;
9888;SDS011;4983;42.112;24.738;2023-09-12T09:36:06;29.73;;;4.53;;
9888;SDS011;4983;42.112;24.738;2023-09-12T09:38:34;8.70;;;2.10;;
9888;SDS011;4983;42.112;24.738;2023-09-12T09:41:03;7.37;;;1.90;;
9888;SDS011;4983;42.112;24.738;2023-09-12T09:43:33;5.10;;;1.33;;
9888;SDS011;4983;42.112;24.738;2023-09-12T09:46:00;5.10;;;1.93;;
9888;SDS011;4983;42.112;24.738;2023-09-12T09:48:28;19.23;;;3.13;;
9888;SDS011;4983;42.112;24.738;2023-09-12T09:51:00;3.10;;;1.50;;
9888;SDS011;4983;42.112;24.738;2023-09-12T09:53:28;4.50;;;1.70;;
9888;SDS011;4983;42.112;24.738;2023-09-12T09:56:07;2.73;;;1.70;;
9888;SDS011;4983;42.112;24.738;2023-09-12T09:58:37;10.23;;;2.53;;
9888;SDS011;4983;42.112;24.738;2023-09-12T10:01:12;2.93;;;1.70;;
9888;SDS011;4983;42.112;24.738;2023-09-12T10:03:43;14.70;;;2.80;;
9888;SDS011;4983;42.112;24.738;2023-09-12T10:06:12;4.53;;;1.90;;
9888;SDS011;4983;42.112;24.738;2023-09-12T10:08:42;9.77;;;2.17;;
9888;SDS011;4983;42.112;24.738;2023-09-12T10:11:10;3.20;;;1.80;;
9888;SDS011;4983;42.112;24.738;2023-09-12T10:13:39;13.67;;;3.00;;
9888;SDS011;4983;42.112;24.738;2023-09-12T10:16:13;17.17;;;3.13;;
9888;SDS011;4983;42.112;24.738;2023-09-12T10:18:44;5.23;;;2.10;;
9888;SDS011;4983;42.112;24.738;2023-09-12T10:21:15;19.00;;;3.17;;
9888;SDS011;4983;42.112;24.738;2023-09-12T10:23:49;12.73;;;3.63;;
9888;SDS011;4983;42.112;24.738;2023-09-12T10:26:16;4.17;;;2.37;;
9888;SDS011;4983;42.112;24.738;2023-09-12T10:28:45;6.77;;;2.77;;
9888;SDS011;4983;42.112;24.738;2023-09-12T10:31:13;8.97;;;3.17;;
9888;SDS011;4983;42.112;24.738;2023-09-12T10:33:42;5.20;;;2.73;;
9888;SDS011;4983;42.112;24.738;2023-09-12T10:36:11;3.87;;;2.50;;
9888;SDS011;4983;42.112;24.738;2023-09-12T10:38:40;31.97;;;4.87;;
9888;SDS011;4983;42.112;24.738;2023-09-12T10:41:10;3.80;;;2.50;;
9888;SDS011;4983;42.112;24.738;2023-09-12T10:43:44;7.77;;;2.87;;
9888;SDS011;4983;42.112;24.738;2023-09-12T10:46:15;3.80;;;2.60;;
9888;SDS011;4983;42.112;24.738;2023-09-12T10:48:43;5.30;;;2.87;;
9888;SDS011;4983;42.112;24.738;2023-09-12T10:51:10;3.23;;;2.70;;
9888;SDS011;4983;42.112;24.738;2023-09-12T10:53:44;3.87;;;2.50;;
9888;SDS011;4983;42.112;24.738;2023-09-12T10:56:14;7.20;;;2.37;;
9888;SDS011;4983;42.112;24.738;2023-09-12T11:01:38;7.97;;;2.93;;
9888;SDS011;4983;42.112;24.738;2023-09-12T11:06:59;9.47;;;2.90;;
9888;SDS011;4983;42.112;24.738;2023-09-12T11:09:26;3.63;;;2.03;;
9888;SDS011;4983;42.112;24.738;2023-09-12T11:11:57;15.40;;;3.50;;
9888;SDS011;4983;42.112;24.738;2023-09-12T11:14:29;30.33;;;9.57;;
9888;SDS011;4983;42.112;24.738;2023-09-12T11:19:49;8.27;;;2.57;;
9888;SDS011;4983;42.112;24.738;2023-09-12T11:22:21;18.50;;;3.27;;
9888;SDS011;4983;42.112;24.738;2023-09-12T11:24:51;9.97;;;2.90;;
9888;SDS011;4983;42.112;24.738;2023-09-12T11:27:18;15.37;;;2.90;;
9888;SDS011;4983;42.112;24.738;2023-09-12T11:29:46;10.23;;;2.60;;
9888;SDS011;4983;42.112;24.738;2023-09-12T11:32:25;9.53;;;2.50;;
9888;SDS011;4983;42.112;24.738;2023-09-12T11:34:54;4.10;;;2.00;;
9888;SDS011;4983;42.112;24.738;2023-09-12T11:37:23;4.67;;;2.30;;
9888;SDS011;4983;42.112;24.738;2023-09-12T11:39:51;2.87;;;1.90;;
9888;SDS011;4983;42.112;24.738;2023-09-12T11:42:18;6.93;;;2.60;;
9888;SDS011;4983;42.112;24.738;2023-09-12T11:44:49;5.57;;;2.53;;
9888;SDS011;4983;42.112;24.738;2023-09-12T11:47:17;7.30;;;2.70;;
9888;SDS011;4983;42.112;24.738;2023-09-12T11:49:44;6.60;;;2.70;;
9888;SDS011;4983;42.112;24.738;2023-09-12T11:52:11;5.50;;;2.30;;
9888;SDS011;4983;42.112;24.738;2023-09-12T11:54:40;4.93;;;2.30;;
9888;SDS011;4983;42.112;24.738;2023-09-12T11:57:08;7.70;;;3.00;;
9888;SDS011;4983;42.112;24.738;2023-09-12T11:59:36;14.60;;;4.53;;
9888;SDS011;4983;42.112;24.738;2023-09-12T12:02:07;13.13;;;3.80;;
9888;SDS011;4983;42.112;24.738;2023-09-12T12:04:34;17.70;;;4.40;;
9888;SDS011;4983;42.112;24.738;2023-09-12T12:07:02;6.03;;;3.17;;
9888;SDS011;4983;42.112;24.738;2023-09-12T12:09:30;4.43;;;2.73;;
9888;SDS011;4983;42.112;24.738;2023-09-12T12:11:59;4.63;;;2.33;;
9888;SDS011;4983;42.112;24.738;2023-09-12T12:14:33;6.47;;;2.70;;
9888;SDS011;4983;42.112;24.738;2023-09-12T12:17:05;5.17;;;2.63;;
9888;SDS011;4983;42.112;24.738;2023-09-12T12:19:35;3.93;;;2.80;;
9888;SDS011;4983;42.112;24.738;2023-09-12T12:22:03;5.67;;;3.30;;
9888;SDS011;4983;42.112;24.738;2023-09-12T12:24:36;4.97;;;3.30;;
9888;SDS011;4983;42.112;24.738;2023-09-12T12:27:05;22.60;;;4.87;;
9888;SDS011;4983;42.112;24.738;2023-09-12T12:29:34;5.20;;;2.70;;
9888;SDS011;4983;42.112;24.738;2023-09-12T12:32:02;6.77;;;3.20;;
9888;SDS011;4983;42.112;24.738;2023-09-12T12:34:31;4.20;;;2.73;;
9888;SDS011;4983;42.112;24.738;2023-09-12T12:36:58;10.20;;;2.90;;
9888;SDS011;4983;42.112;24.738;2023-09-12T12:39:25;4.77;;;3.43;;
9888;SDS011;4983;42.112;24.738;2023-09-12T12:41:52;8.17;;;4.10;;
9888;SDS011;4983;42.112;24.738;2023-09-12T12:44:20;3.80;;;2.77;;
9888;SDS011;4983;42.112;24.738;2023-09-12T12:46:47;15.23;;;3.70;;
9888;SDS011;4983;42.112;24.738;2023-09-12T12:49:15;7.60;;;2.50;;
9888;SDS011;4983;42.112;24.738;2023-09-12T12:51:44;5.70;;;2.20;;
9888;SDS011;4983;42.112;24.738;2023-09-12T12:54:11;4.67;;;2.53;;
9888;SDS011;4983;42.112;24.738;2023-09-12T12:56:38;4.97;;;2.60;;
9888;SDS011;4983;42.112;24.738;2023-09-12T12:59:07;3.20;;;2.40;;
9888;SDS011;4983;42.112;24.738;2023-09-12T13:01:34;8.23;;;2.93;;
9888;SDS011;4983;42.112;24.738;2023-09-12T13:04:04;5.13;;;2.20;;
9888;SDS011;4983;42.112;24.738;2023-09-12T13:06:32;6.07;;;2.50;;
9888;SDS011;4983;42.112;24.738;2023-09-12T13:09:02;2.73;;;2.20;;
9888;SDS011;4983;42.112;24.738;2023-09-12T13:11:31;17.70;;;3.80;;
9888;SDS011;4983;42.112;24.738;2023-09-12T13:14:00;4.47;;;2.17;;
9888;SDS011;4983;42.112;24.738;2023-09-12T13:16:27;4.43;;;2.67;;
9888;SDS011;4983;42.112;24.738;2023-09-12T13:18:55;4.97;;;2.20;;
9888;SDS011;4983;42.112;24.738;2023-09-12T13:21:21;5.47;;;2.33;;
9888;SDS011;4983;42.112;24.738;2023-09-12T13:23:48;3.77;;;2.10;;
9888;SDS011;4983;42.112;24.738;2023-09-12T13:26:17;5.53;;;2.70;;
9888;SDS011;4983;42.112;24.738;2023-09-12T13:28:43;11.50;;;3.10;;
9888;SDS011;4983;42.112;24.738;2023-09-12T13:31:10;5.63;;;2.50;;
9888;SDS011;4983;42.112;24.738;2023-09-12T13:33:38;12.57;;;2.53;;
9888;SDS011;4983;42.112;24.738;2023-09-12T13:36:05;10.00;;;2.77;;
9888;SDS011;4983;42.112;24.738;2023-09-12T13:38:32;18.00;;;3.13;;
9888;SDS011;4983;42.112;24.738;2023-09-12T13:40:59;9.80;;;2.80;;
9888;SDS011;4983;42.112;24.738;2023-09-12T13:43:27;3.33;;;2.30;;
9888;SDS011;4983;42.112;24.738;2023-09-12T13:45:56;4.70;;;2.13;;
9888;SDS011;4983;42.112;24.738;2023-09-12T13:48:23;9.93;;;2.73;;
9888;SDS011;4983;42.112;24.738;2023-09-12T13:50:51;3.53;;;2.20;;
9888;SDS011;4983;42.112;24.738;2023-09-12T13:53:18;10.63;;;3.10;;
9888;SDS011;4983;42.112;24.738;2023-09-12T13:55:45;20.43;;;2.67;;
9888;SDS011;4983;42.112;24.738;2023-09-12T13:58:12;6.43;;;2.43;;
9888;SDS011;4983;42.112;24.738;2023-09-12T14:00:40;11.77;;;2.83;;
9888;SDS011;4983;42.112;24.738;2023-09-12T14:03:08;4.53;;;1.93;;
9888;SDS011;4983;42.112;24.738;2023-09-12T14:05:34;4.10;;;2.00;;
9888;SDS011;4983;42.112;24.738;2023-09-12T14:08:02;9.03;;;2.73;;
9888;SDS011;4983;42.112;24.738;2023-09-12T14:10:29;4.17;;;2.10;;
9888;SDS011;4983;42.112;24.738;2023-09-12T14:12:56;6.47;;;2.23;;
9888;SDS011;4983;42.112;24.738;2023-09-12T14:15:23;13.47;;;3.40;;
9888;SDS011;4983;42.112;24.738;2023-09-12T14:17:52;4.03;;;2.47;;
9888;SDS011;4983;42.112;24.738;2023-09-12T14:20:22;12.47;;;2.87;;
9888;SDS011;4983;42.112;24.738;2023-09-12T14:22:49;6.80;;;2.57;;
9888;SDS011;4983;42.112;24.738;2023-09-12T14:25:16;6.13;;;2.20;;
9888;SDS011;4983;42.112;24.738;2023-09-12T14:27:44;5.40;;;2.27;;
9888;SDS011;4983;42.112;24.738;2023-09-12T14:30:11;3.87;;;2.00;;
9888;SDS011;4983;42.112;24.738;2023-09-12T14:32:39;4.10;;;2.23;;
9888;SDS011;4983;42.112;24.738;2023-09-12T14:35:10;3.50;;;2.23;;
9888;SDS011;4983;42.112;24.738;2023-09-12T14:37:36;8.00;;;2.60;;
9888;SDS011;4983;42.112;24.738;2023-09-12T14:40:08;3.53;;;2.00;;
9888;SDS011;4983;42.112;24.738;2023-09-12T14:42:38;5.50;;;2.57;;
9888;SDS011;4983;42.112;24.738;2023-09-12T14:45:05;21.13;;;4.80;;
9888;SDS011;4983;42.112;24.738;2023-09-12T14:47:35;7.10;;;2.13;;
9888;SDS011;4983;42.112;24.738;2023-09-12T14:50:03;3.83;;;2.30;;
9888;SDS011;4983;42.112;24.738;2023-09-12T14:52:31;7.13;;;2.50;;
9888;SDS011;4983;42.112;24.738;2023-09-12T14:55:00;12.30;;;3.20;;
9888;SDS011;4983;42.112;24.738;2023-09-12T14:57:29;4.43;;;2.50;;
9888;SDS011;4983;42.112;24.738;2023-09-12T14:59:56;3.47;;;2.37;;
9888;SDS011;4983;42.112;24.738;2023-09-12T15:02:24;3.53;;;2.23;;
9888;SDS011;4983;42.112;24.738;2023-09-12T15:04:56;6.17;;;2.23;;
9888;SDS011;4983;42.112;24.738;2023-09-12T15:07:23;26.23;;;4.20;;
9888;SDS011;4983;42.112;24.738;2023-09-12T15:09:51;3.70;;;2.23;;
9888;SDS011;4983;42.112;24.738;2023-09-12T15:12:19;7.17;;;2.60;;